Time;durP1;ratioP1;P1;durP2;ratioP2;P2;SDS_P1;SDS_P2;PMS_P1;PMS_P2;Temp;Humidity;BMP_temperature;BMP_pressure;BME280_temperature;BME280_humidity;BME280_pressure;Samples;Min_cycle;Max_cycle;Signal;HPM_P1;HPM_P2
2022/03/09 00:00:29;;;;;;;10.45;7.53;;;-2.00;93.10;;;;;;5003913;28;20441;-32
2022/03/09 00:02:55;;;;;;;12.10;6.95;;;-2.10;95.10;;;;;;4985159;28;20429;-32
2022/03/09 00:05:20;;;;;;;10.85;6.78;;;-2.20;95.90;;;;;;4998619;28;20064;-32
2022/03/09 00:07:46;;;;;;;8.35;6.38;;;-2.30;95.70;;;;;;4999738;28;20037;-33
2022/03/09 00:10:12;;;;;;;8.80;5.40;;;-2.40;95.90;;;;;;5004729;28;20041;-32
2022/03/09 00:12:37;;;;;;;11.38;6.20;;;-2.30;96.60;;;;;;5000131;28;20026;-32
2022/03/09 00:15:03;;;;;;;3.88;3.10;;;-2.30;97.60;;;;;;5002876;28;20479;-32
2022/03/09 00:17:29;;;;;;;9.77;6.25;;;-2.60;99.90;;;;;;4995654;28;20034;-32
2022/03/09 00:19:54;;;;;;;7.43;5.43;;;-3.00;99.90;;;;;;4999040;28;20034;-32
2022/03/09 00:22:20;;;;;;;8.38;6.88;;;-3.00;99.90;;;;;;5004701;28;20026;-32
2022/03/09 00:24:45;;;;;;;15.25;6.25;;;-2.90;99.90;;;;;;4995881;28;20104;-32
2022/03/09 00:27:11;;;;;;;12.95;7.60;;;-2.90;99.40;;;;;;5001161;28;20084;-32
2022/03/09 00:29:37;;;;;;;17.92;9.90;;;-2.80;99.10;;;;;;5003748;28;20026;-33
2022/03/09 00:32:04;;;;;;;18.00;9.07;;;-2.90;98.90;;;;;;5000989;28;20038;-32
2022/03/09 00:34:30;;;;;;;13.93;8.15;;;-2.70;98.40;;;;;;4998091;28;20411;-32
2022/03/09 00:36:56;;;;;;;10.23;6.00;;;-2.60;97.90;;;;;;4996102;28;20041;-32
2022/03/09 00:39:21;;;;;;;9.60;5.18;;;-2.60;99.90;;;;;;4975806;28;20085;-32
2022/03/09 00:41:47;;;;;;;12.80;5.60;;;-2.70;99.90;;;;;;5001857;28;20025;-32
2022/03/09 00:44:12;;;;;;;6.80;4.50;;;-2.80;99.90;;;;;;5001179;28;20439;-33
2022/03/09 00:46:38;;;;;;;5.70;4.32;;;-2.90;99.90;;;;;;4997815;28;20468;-32
2022/03/09 00:49:04;;;;;;;18.75;9.20;;;-2.90;99.90;;;;;;4999930;28;20075;-32
2022/03/09 00:51:30;;;;;;;26.92;15.15;;;-2.90;99.90;;;;;;4993648;28;20042;-32
2022/03/09 00:53:55;;;;;;;33.95;19.15;;;-2.80;99.20;;;;;;4991554;28;20045;-32
2022/03/09 00:56:21;;;;;;;66.25;30.52;;;-2.80;98.70;;;;;;4990684;28;20088;-32
2022/03/09 00:58:47;;;;;;;43.88;21.30;;;-2.70;98.30;;;;;;4990028;28;20217;-32
2022/03/09 01:01:13;;;;;;;44.90;22.48;;;-2.80;98.80;;;;;;4990519;28;20045;-32
2022/03/09 01:03:39;;;;;;;34.03;18.90;;;-2.80;98.50;;;;;;4990054;28;20120;-32
2022/03/09 01:06:05;;;;;;;19.33;11.68;;;-2.80;98.40;;;;;;4989412;28;20052;-32
2022/03/09 01:08:31;;;;;;;14.80;9.60;;;-2.70;98.10;;;;;;4990474;28;20475;-32
2022/03/09 01:10:56;;;;;;;15.60;8.60;;;-2.60;97.70;;;;;;4993071;28;20037;-32
2022/03/09 01:13:22;;;;;;;9.50;6.65;;;-2.50;97.40;;;;;;4989564;28;20666;-32
2022/03/09 01:15:49;;;;;;;8.27;5.93;;;-2.50;94.90;;;;;;4990776;28;20038;-32
2022/03/09 01:18:14;;;;;;;9.88;6.20;;;-2.60;93.90;;;;;;4989168;28;20125;-32
2022/03/09 01:20:40;;;;;;;5.75;4.68;;;-2.70;94.70;;;;;;4989515;28;20026;-32
2022/03/09 01:23:06;;;;;;;9.10;5.57;;;-2.90;95.50;;;;;;4991038;28;20113;-33
2022/03/09 01:25:31;;;;;;;11.65;5.32;;;-3.00;95.90;;;;;;4989641;28;22218;-32
2022/03/09 01:27:57;;;;;;;4.25;3.22;;;-3.10;99.20;;;;;;4989345;28;20111;-32
2022/03/09 01:30:23;;;;;;;10.82;5.32;;;-3.20;99.90;;;;;;4991923;28;20084;-32
2022/03/09 01:32:49;;;;;;;6.75;5.07;;;-3.50;99.90;;;;;;4997707;28;20049;-33
2022/03/09 01:35:14;;;;;;;6.57;5.55;;;-3.50;99.90;;;;;;4994268;28;20411;-32
2022/03/09 01:37:40;;;;;;;11.48;6.20;;;-3.50;99.90;;;;;;4990139;28;20022;-32
2022/03/09 01:40:06;;;;;;;6.70;5.00;;;-3.50;99.90;;;;;;4989666;28;20103;-32
2022/03/09 01:42:32;;;;;;;6.15;4.82;;;-3.40;99.90;;;;;;4990538;28;20022;-32
2022/03/09 01:45:04;;;;;;;7.30;4.88;;;-3.30;99.90;;;;;;4990891;28;20040;-32
2022/03/09 01:47:29;;;;;;;5.10;4.20;;;-3.30;99.90;;;;;;4991373;28;20042;-32
2022/03/09 01:49:55;;;;;;;5.03;3.17;;;-3.40;99.90;;;;;;4988927;28;20029;-32
2022/03/09 01:52:20;;;;;;;4.72;3.53;;;-3.60;99.90;;;;;;4995357;28;20145;-32
2022/03/09 01:54:46;;;;;;;4.38;3.97;;;-3.70;99.90;;;;;;4999212;28;20038;-32
2022/03/09 01:57:12;;;;;;;9.13;3.80;;;-3.90;99.90;;;;;;5000803;28;20018;-32
2022/03/09 01:59:38;;;;;;;7.78;5.63;;;-3.80;99.90;;;;;;4992692;28;20044;-32
2022/03/09 02:02:03;;;;;;;20.08;10.10;;;-3.70;99.90;;;;;;4992958;28;20391;-32
2022/03/09 02:04:29;;;;;;;5.43;4.15;;;-3.70;99.90;;;;;;4995538;28;20033;-32
2022/03/09 02:06:55;;;;;;;5.68;4.68;;;-3.70;99.90;;;;;;5003075;28;20108;-32
2022/03/09 02:12:05;;;;;;;6.20;4.50;;;-3.60;99.90;;;;;;4990896;28;20127;-32
2022/03/09 02:14:35;;;;;;;5.95;5.20;;;-3.70;99.90;;;;;;4993492;28;20033;-32
2022/03/09 02:17:04;;;;;;;18.05;10.50;;;-3.70;99.90;;;;;;4992786;28;20045;-32
2022/03/09 02:19:30;;;;;;;20.63;12.63;;;-3.70;99.90;;;;;;4994600;28;20037;-32
2022/03/09 02:22:20;;;;;;;22.50;11.27;;;-3.70;99.90;;;;;;4997023;28;20079;-33
2022/03/09 02:24:50;;;;;;;8.88;6.85;;;-3.70;99.90;;;;;;4978421;28;21698;-32
2022/03/09 02:27:20;;;;;;;10.23;6.68;;;-3.60;99.90;;;;;;4999264;28;20481;-33
2022/03/09 02:29:49;;;;;;;11.75;6.85;;;-3.60;99.90;;;;;;4995806;28;20072;-32
2022/03/09 02:32:16;;;;;;;7.90;6.13;;;-3.60;99.90;;;;;;4994126;28;20033;-32
2022/03/09 02:34:42;;;;;;;14.38;6.18;;;-3.60;99.70;;;;;;4990548;28;20422;-32
2022/03/09 02:37:07;;;;;;;7.22;5.95;;;-3.60;98.80;;;;;;4990757;28;20026;-32
2022/03/09 02:39:33;;;;;;;6.55;4.47;;;-3.60;98.60;;;;;;4993684;28;20083;-32
2022/03/09 02:41:58;;;;;;;9.57;5.13;;;-3.60;99.90;;;;;;4992209;28;20163;-32
2022/03/09 02:44:24;;;;;;;5.30;3.42;;;-3.80;99.90;;;;;;4992235;28;20032;-32
2022/03/09 02:46:50;;;;;;;6.20;4.43;;;-3.90;99.90;;;;;;4991849;28;20084;-32
2022/03/09 02:49:15;;;;;;;9.00;3.88;;;-3.90;99.90;;;;;;4993195;28;21007;-32
2022/03/09 02:51:41;;;;;;;3.50;3.10;;;-3.80;99.90;;;;;;5000634;28;20092;-32
2022/03/09 02:54:07;;;;;;;5.47;4.15;;;-3.90;99.90;;;;;;4990810;28;20033;-32
2022/03/09 02:56:33;;;;;;;7.30;4.25;;;-4.10;99.90;;;;;;4996112;28;20479;-32
2022/03/09 02:58:58;;;;;;;11.23;4.78;;;-4.10;99.90;;;;;;4995014;28;20109;-32
2022/03/09 03:01:24;;;;;;;8.35;4.18;;;-4.10;99.90;;;;;;4990768;28;20501;-32
2022/03/09 03:03:50;;;;;;;8.10;2.35;;;-4.10;99.90;;;;;;4991342;28;20030;-32
2022/03/09 03:06:15;;;;;;;5.45;4.07;;;-4.20;99.90;;;;;;4973531;28;20037;-32
2022/03/09 03:08:41;;;;;;;4.50;3.80;;;-4.20;99.90;;;;;;4988339;28;20145;-32
2022/03/09 03:11:08;;;;;;;5.97;4.43;;;-4.10;99.90;;;;;;4993062;28;20467;-32
2022/03/09 03:13:39;;;;;;;3.92;3.47;;;-4.10;99.90;;;;;;4995279;28;20034;-33
2022/03/09 03:16:06;;;;;;;7.00;3.70;;;-4.30;99.90;;;;;;4995844;28;20044;-32
2022/03/09 03:18:32;;;;;;;7.18;3.88;;;-4.50;99.90;;;;;;4987463;28;20038;-32
2022/03/09 03:20:58;;;;;;;4.40;4.07;;;-4.40;99.90;;;;;;4993780;28;20029;-32
2022/03/09 03:23:26;;;;;;;5.70;4.20;;;-4.30;99.90;;;;;;4991182;28;20533;-33
2022/03/09 03:25:52;;;;;;;6.07;4.63;;;-4.30;99.90;;;;;;4990240;28;20390;-32
2022/03/09 03:28:19;;;;;;;7.43;4.55;;;-4.30;99.90;;;;;;4991970;28;20442;-32
2022/03/09 03:30:45;;;;;;;8.73;4.70;;;-4.30;99.90;;;;;;4988121;28;20042;-32
2022/03/09 03:33:12;;;;;;;3.90;3.60;;;-4.50;99.90;;;;;;4991583;28;20042;-32
2022/03/09 03:35:38;;;;;;;11.43;4.30;;;-4.50;99.90;;;;;;4989946;28;20421;-32
2022/03/09 03:38:03;;;;;;;4.03;3.35;;;-4.40;99.90;;;;;;4989133;28;20815;-32
2022/03/09 03:40:29;;;;;;;8.45;5.07;;;-4.30;99.90;;;;;;4991049;28;20069;-32
2022/03/09 03:42:55;;;;;;;5.28;3.80;;;-4.50;99.90;;;;;;4991972;28;20103;-32
2022/03/09 03:45:20;;;;;;;6.47;4.53;;;-4.60;99.90;;;;;;4990047;28;20762;-32
2022/03/09 03:47:47;;;;;;;5.00;4.43;;;-4.60;99.90;;;;;;4990734;28;20041;-32
2022/03/09 03:50:13;;;;;;;8.05;5.43;;;-4.50;99.90;;;;;;4986869;28;20044;-32
2022/03/09 03:52:39;;;;;;;5.03;4.03;;;-4.80;99.90;;;;;;4988607;28;20285;-32
2022/03/09 03:55:05;;;;;;;7.68;4.90;;;-4.90;99.90;;;;;;4988942;28;20644;-32
2022/03/09 03:57:30;;;;;;;6.18;4.10;;;-4.70;99.90;;;;;;4989431;28;20095;-32
2022/03/09 03:59:56;;;;;;;4.30;3.85;;;-4.60;99.90;;;;;;4994230;28;20487;-32
2022/03/09 04:02:22;;;;;;;6.22;3.97;;;-4.50;99.90;;;;;;4992001;28;20040;-32
2022/03/09 04:04:47;;;;;;;5.80;2.95;;;-4.50;99.90;;;;;;4992208;28;20136;-32
2022/03/09 04:07:13;;;;;;;2.85;2.60;;;-4.50;99.90;;;;;;4989068;28;20045;-32
2022/03/09 04:09:39;;;;;;;8.95;5.30;;;-4.70;99.90;;;;;;4991525;28;20281;-32
2022/03/09 04:12:04;;;;;;;9.38;5.00;;;-4.70;99.90;;;;;;4989925;28;20033;-32
2022/03/09 04:14:30;;;;;;;5.32;4.30;;;-4.50;99.90;;;;;;4990089;28;20026;-32
2022/03/09 04:16:56;;;;;;;8.00;5.60;;;-4.50;99.90;;;;;;4992836;28;20046;-32
2022/03/09 04:19:21;;;;;;;8.48;6.28;;;-4.60;99.90;;;;;;4994141;28;20029;-32
2022/03/09 04:21:47;;;;;;;3.97;3.58;;;-4.60;99.90;;;;;;4990224;28;20518;-32
2022/03/09 04:24:13;;;;;;;4.40;4.00;;;-4.60;99.90;;;;;;4996027;28;20057;-32
2022/03/09 04:26:38;;;;;;;4.93;4.18;;;-4.90;99.90;;;;;;4996451;28;20164;-32
2022/03/09 04:29:04;;;;;;;9.85;5.30;;;-4.80;99.90;;;;;;4995417;28;20034;-32
2022/03/09 04:31:30;;;;;;;5.47;4.85;;;-4.60;99.90;;;;;;4993298;28;20042;-32
2022/03/09 04:33:55;;;;;;;8.70;6.03;;;-4.50;99.90;;;;;;4994549;28;20644;-33
2022/03/09 04:36:21;;;;;;;7.78;5.80;;;-4.50;99.90;;;;;;4991141;28;20026;-32
2022/03/09 04:38:46;;;;;;;3.97;3.45;;;-4.70;99.90;;;;;;4994010;28;20034;-32
2022/03/09 04:41:12;;;;;;;10.52;5.47;;;-5.20;99.90;;;;;;4992592;28;20592;-32
2022/03/09 04:43:38;;;;;;;5.05;4.05;;;-5.30;99.90;;;;;;4990090;28;20030;-32
2022/03/09 04:46:03;;;;;;;4.88;3.95;;;-5.10;99.90;;;;;;4993845;28;20759;-32
2022/03/09 04:48:29;;;;;;;5.60;3.15;;;-5.10;99.90;;;;;;4994285;28;20029;-32
2022/03/09 04:50:55;;;;;;;11.43;3.03;;;-4.90;99.90;;;;;;4991626;28;20476;-32
2022/03/09 04:53:20;;;;;;;3.38;3.17;;;-5.10;99.90;;;;;;4994325;28;20121;-32
2022/03/09 04:55:46;;;;;;;5.40;3.67;;;-5.30;99.90;;;;;;4994177;28;20030;-32
2022/03/09 04:58:11;;;;;;;3.42;3.22;;;-5.30;99.90;;;;;;4992258;28;20022;-32
2022/03/09 05:00:37;;;;;;;11.55;4.75;;;-5.50;99.90;;;;;;4992277;28;20030;-32
2022/03/09 05:03:02;;;;;;;0.88;0.88;;;-5.60;99.90;;;;;;4991032;28;20492;-32
2022/03/09 05:05:29;;;;;;;2.90;2.72;;;-5.70;99.90;;;;;;4992743;28;20038;-32
2022/03/09 05:07:55;;;;;;;4.05;3.60;;;-5.90;99.90;;;;;;4992468;28;20135;-32
2022/03/09 05:10:20;;;;;;;1.50;1.50;;;-5.90;99.90;;;;;;4990839;28;20026;-32
2022/03/09 05:12:46;;;;;;;3.20;2.92;;;-5.80;99.90;;;;;;4989821;28;20084;-32
2022/03/09 05:15:12;;;;;;;4.50;4.00;;;-5.60;99.90;;;;;;4994019;28;20033;-32
2022/03/09 05:17:42;;;;;;;2.28;2.17;;;-5.60;99.90;;;;;;4993135;28;20103;-32
2022/03/09 05:20:09;;;;;;;4.55;4.07;;;-5.50;99.90;;;;;;4994674;28;20017;-32
2022/03/09 05:22:35;;;;;;;4.35;4.00;;;-5.50;99.90;;;;;;4995683;28;20399;-32
2022/03/09 05:25:01;;;;;;;4.30;3.90;;;-5.40;99.90;;;;;;4994883;28;20037;-32
2022/03/09 05:27:27;;;;;;;3.20;3.00;;;-5.30;99.90;;;;;;4996832;28;20582;-32
2022/03/09 05:29:53;;;;;;;4.72;2.78;;;-5.30;99.90;;;;;;4996733;28;20030;-32
2022/03/09 05:32:19;;;;;;;3.70;3.10;;;-5.30;99.90;;;;;;4996092;28;20586;-32
2022/03/09 05:34:47;;;;;;;10.20;4.63;;;-5.20;99.90;;;;;;4995974;28;20065;-32
2022/03/09 05:37:13;;;;;;;7.38;4.80;;;-5.20;99.90;;;;;;4997085;28;20033;-33
2022/03/09 05:39:39;;;;;;;5.20;4.20;;;-5.10;99.90;;;;;;4994717;28;20044;-32
2022/03/09 05:42:05;;;;;;;5.70;5.20;;;-5.10;99.90;;;;;;4993077;28;20038;-32
2022/03/09 05:44:30;;;;;;;5.90;3.58;;;-5.00;99.90;;;;;;4997157;28;20064;-32
2022/03/09 05:46:57;;;;;;;7.82;3.95;;;-4.90;99.90;;;;;;4995583;28;20554;-32
2022/03/09 05:49:23;;;;;;;5.72;4.45;;;-5.00;99.90;;;;;;4992433;28;20025;-32
2022/03/09 05:51:49;;;;;;;3.90;3.63;;;-5.20;99.90;;;;;;4996562;28;20044;-32
2022/03/09 05:54:15;;;;;;;4.40;3.80;;;-5.10;99.90;;;;;;4997919;28;20034;-32
2022/03/09 05:56:41;;;;;;;4.90;4.50;;;-5.20;99.90;;;;;;4998529;28;20053;-32
2022/03/09 05:59:07;;;;;;;4.90;4.38;;;-5.10;99.90;;;;;;5000237;28;20030;-32
2022/03/09 06:01:33;;;;;;;4.57;4.15;;;-5.10;99.90;;;;;;4993191;28;20542;-32
2022/03/09 06:03:59;;;;;;;12.07;5.60;;;-5.10;99.90;;;;;;4995191;28;20035;-32
2022/03/09 06:06:24;;;;;;;7.32;5.43;;;-5.10;99.90;;;;;;4997217;28;20486;-32
2022/03/09 06:08:50;;;;;;;7.10;5.15;;;-5.00;99.90;;;;;;4996929;28;20779;-32
2022/03/09 06:11:16;;;;;;;4.47;4.05;;;-5.20;99.90;;;;;;4990573;28;20076;-32
2022/03/09 06:13:41;;;;;;;4.78;4.35;;;-5.30;99.90;;;;;;4990518;28;20038;-32
2022/03/09 06:16:07;;;;;;;5.45;4.95;;;-5.30;99.90;;;;;;4991383;28;20034;-32
2022/03/09 06:18:32;;;;;;;6.97;4.45;;;-5.20;99.90;;;;;;4992660;28;20427;-32
2022/03/09 06:20:58;;;;;;;10.65;5.50;;;-5.20;99.90;;;;;;4996307;28;20040;-32
2022/03/09 06:23:24;;;;;;;4.53;4.25;;;-5.10;99.90;;;;;;4995311;28;20025;-32
2022/03/09 06:25:49;;;;;;;6.78;4.03;;;-5.10;99.90;;;;;;4996677;28;20514;-32
2022/03/09 06:28:15;;;;;;;7.72;5.10;;;-5.10;99.90;;;;;;4996633;28;20040;-32
2022/03/09 06:30:41;;;;;;;8.88;6.97;;;-5.00;99.90;;;;;;4994802;28;20044;-32
2022/03/09 06:33:07;;;;;;;16.15;9.88;;;-4.90;99.90;;;;;;4994823;28;20029;-32
2022/03/09 06:35:32;;;;;;;16.08;7.68;;;-4.90;99.90;;;;;;4994742;28;21224;-32
2022/03/09 06:37:59;;;;;;;10.68;5.72;;;-4.80;99.90;;;;;;4995512;28;20113;-32
2022/03/09 06:40:25;;;;;;;5.68;4.38;;;-4.80;99.90;;;;;;4971249;28;20030;-32
2022/03/09 06:42:51;;;;;;;5.35;4.93;;;-4.60;99.90;;;;;;4995528;28;20034;-32
2022/03/09 06:45:17;;;;;;;27.48;5.85;;;-4.60;99.90;;;;;;4990093;28;20061;-32
2022/03/09 06:47:43;;;;;;;3.15;2.70;;;-4.40;99.90;;;;;;4988985;28;20120;-32
2022/03/09 06:50:10;;;;;;;3.28;2.75;;;-4.30;99.90;;;;;;4997729;28;20040;-32
2022/03/09 06:52:36;;;;;;;8.23;5.15;;;-4.30;99.90;;;;;;4999419;28;20038;-32
2022/03/09 06:55:03;;;;;;;9.02;6.10;;;-4.30;99.90;;;;;;4995072;28;20042;-32
2022/03/09 06:57:32;;;;;;;5.32;4.60;;;-4.20;99.90;;;;;;4994666;28;20740;-32
2022/03/09 06:59:59;;;;;;;2.97;2.83;;;-4.10;99.90;;;;;;4996087;28;20590;-32
2022/03/09 07:02:25;;;;;;;5.43;3.72;;;-4.10;99.90;;;;;;4997125;28;20034;-32
2022/03/09 07:04:50;;;;;;;3.78;3.53;;;-4.00;99.90;;;;;;4993356;28;21647;-32
2022/03/09 07:07:16;;;;;;;2.45;2.35;;;-3.90;99.90;;;;;;4995659;28;20547;-32
2022/03/09 07:09:41;;;;;;;6.32;5.18;;;-3.80;99.90;;;;;;4995961;28;20041;-32
2022/03/09 07:12:08;;;;;;;6.65;5.22;;;-3.70;99.90;;;;;;4994557;28;20414;-32
2022/03/09 07:14:34;;;;;;;2.70;2.60;;;-3.60;99.90;;;;;;4995980;28;20052;-32
2022/03/09 07:16:59;;;;;;;3.33;2.30;;;-3.50;99.90;;;;;;4998136;28;20030;-32
2022/03/09 07:19:25;;;;;;;8.57;5.13;;;-3.40;99.90;;;;;;5002647;28;20022;-32
2022/03/09 07:21:51;;;;;;;8.45;4.68;;;-3.30;99.90;;;;;;4997533;28;20044;-32
2022/03/09 07:24:17;;;;;;;7.13;4.85;;;-3.30;99.90;;;;;;5001105;28;20120;-33
2022/03/09 07:26:43;;;;;;;5.38;4.93;;;-3.20;99.90;;;;;;4996790;28;20075;-33
2022/03/09 07:29:09;;;;;;;7.90;5.30;;;-3.10;99.90;;;;;;4994899;28;20038;-32
2022/03/09 07:31:35;;;;;;;6.75;4.72;;;-3.00;99.90;;;;;;4997081;28;20034;-32
2022/03/09 07:34:01;;;;;;;7.68;4.50;;;-3.00;99.90;;;;;;4994058;28;20125;-32
2022/03/09 07:36:27;;;;;;;6.72;5.63;;;-2.80;99.90;;;;;;4994167;28;20597;-32
2022/03/09 07:38:52;;;;;;;8.95;6.20;;;-2.80;99.90;;;;;;4996514;28;20034;-32
2022/03/09 07:41:18;;;;;;;8.70;5.30;;;-2.70;99.90;;;;;;4994774;28;20030;-32
2022/03/09 07:43:43;;;;;;;4.28;4.05;;;-2.60;99.90;;;;;;4991802;28;21548;-32
2022/03/09 07:46:09;;;;;;;11.05;5.45;;;-2.50;99.90;;;;;;4995851;28;20092;-32
2022/03/09 07:48:35;;;;;;;2.13;2.03;;;-2.40;99.90;;;;;;4993793;28;20064;-32
2022/03/09 07:51:00;;;;;;;10.07;4.82;;;-2.30;99.90;;;;;;4996517;28;20634;-32
2022/03/09 07:53:26;;;;;;;3.22;2.25;;;-2.20;99.90;;;;;;4993551;28;20080;-32
2022/03/09 07:55:52;;;;;;;3.83;3.47;;;-2.10;99.90;;;;;;4991859;28;20041;-32
2022/03/09 07:58:18;;;;;;;5.47;4.80;;;-2.00;99.90;;;;;;4996661;28;20034;-32
2022/03/09 08:00:45;;;;;;;11.93;5.13;;;-1.80;99.90;;;;;;4994971;28;20049;-32
2022/03/09 08:03:10;;;;;;;8.63;5.68;;;-1.70;99.90;;;;;;5000996;28;20509;-32
2022/03/09 08:05:36;;;;;;;4.45;3.78;;;-1.60;99.90;;;;;;5000016;28;20412;-32
2022/03/09 08:08:01;;;;;;;11.32;4.03;;;-1.30;99.90;;;;;;5000759;28;20044;-32
2022/03/09 08:10:27;;;;;;;6.35;5.40;;;-1.20;99.90;;;;;;4998392;28;20041;-32
2022/03/09 08:12:53;;;;;;;7.95;5.90;;;-1.10;99.90;;;;;;4993771;28;20589;-32
2022/03/09 08:15:19;;;;;;;8.18;5.28;;;-1.00;99.90;;;;;;4999899;28;20030;-32
2022/03/09 08:17:44;;;;;;;8.38;5.32;;;-0.70;99.90;;;;;;4997097;28;20046;-33
2022/03/09 08:20:11;;;;;;;13.55;6.05;;;-0.50;99.90;;;;;;4999694;28;20042;-32
2022/03/09 08:22:39;;;;;;;9.93;5.60;;;-0.20;99.90;;;;;;4996941;28;20030;-32
2022/03/09 08:25:05;;;;;;;6.38;3.80;;;0.00;99.90;;;;;;4995335;28;20736;-32
2022/03/09 08:27:31;;;;;;;9.63;5.82;;;0.20;99.90;;;;;;5002209;28;20068;-33
2022/03/09 08:29:57;;;;;;;11.43;6.78;;;0.40;99.90;;;;;;5002881;28;20065;-32
2022/03/09 08:32:23;;;;;;;10.13;5.95;;;0.50;99.90;;;;;;5000675;28;20037;-32
2022/03/09 08:34:48;;;;;;;10.68;5.90;;;0.80;99.90;;;;;;4998138;28;20505;-32
2022/03/09 08:37:14;;;;;;;10.73;5.68;;;0.90;99.90;;;;;;5000347;28;20050;-32
2022/03/09 08:39:43;;;;;;;8.68;6.63;;;1.00;98.90;;;;;;4998123;28;20032;-32
2022/03/09 08:42:09;;;;;;;13.85;6.50;;;1.20;99.50;;;;;;4998013;28;21055;-32
2022/03/09 08:44:35;;;;;;;11.88;7.15;;;1.40;98.40;;;;;;4998634;28;20041;-32
2022/03/09 08:47:01;;;;;;;13.50;7.40;;;1.60;96.80;;;;;;4999331;28;20498;-32
2022/03/09 08:49:27;;;;;;;9.07;6.88;;;1.80;96.80;;;;;;4998443;28;20037;-32
2022/03/09 08:51:52;;;;;;;15.38;6.68;;;2.00;96.40;;;;;;5010626;28;20037;-32
2022/03/09 08:54:18;;;;;;;14.98;7.43;;;2.20;94.40;;;;;;5007438;28;20026;-32
2022/03/09 08:56:43;;;;;;;14.73;4.75;;;2.30;93.40;;;;;;5009320;28;20056;-32
2022/03/09 08:59:09;;;;;;;11.68;6.00;;;2.50;93.00;;;;;;5014851;28;20041;-33
2022/03/09 09:01:35;;;;;;;13.20;7.45;;;2.60;91.90;;;;;;5009634;28;20045;-32
2022/03/09 09:04:01;;;;;;;11.82;8.35;;;2.80;93.60;;;;;;5006221;28;20037;-32
2022/03/09 09:06:26;;;;;;;12.88;6.50;;;3.00;91.60;;;;;;5009633;28;20026;-32
2022/03/09 09:08:52;;;;;;;10.10;6.88;;;3.10;90.80;;;;;;5008796;28;20103;-32
2022/03/09 09:11:17;;;;;;;14.00;7.40;;;3.20;82.50;;;;;;5006623;28;20036;-32
2022/03/09 09:13:43;;;;;;;12.15;7.35;;;3.30;87.00;;;;;;5008093;28;20045;-32
2022/03/09 09:16:09;;;;;;;9.02;5.85;;;3.60;88.80;;;;;;5007617;28;20395;-33
2022/03/09 09:18:34;;;;;;;15.73;7.88;;;3.80;80.30;;;;;;5009778;28;20042;-33
2022/03/09 09:21:00;;;;;;;10.30;6.95;;;3.90;79.50;;;;;;5007673;28;20033;-32
2022/03/09 09:23:26;;;;;;;14.80;7.65;;;3.90;69.60;;;;;;5007806;28;20025;-32
2022/03/09 09:25:52;;;;;;;14.43;7.70;;;4.10;78.80;;;;;;5005587;28;20125;-32
2022/03/09 09:28:18;;;;;;;13.73;6.93;;;4.20;78.80;;;;;;5009131;28;20030;-32
2022/03/09 09:30:43;;;;;;;13.45;7.68;;;4.30;72.90;;;;;;5009417;28;20495;-32
2022/03/09 09:33:09;;;;;;;12.55;7.60;;;4.50;73.30;;;;;;5006700;28;20025;-32
2022/03/09 09:35:34;;;;;;;19.23;9.60;;;4.80;74.40;;;;;;5009363;28;20104;-32
2022/03/09 09:38:06;;;;;;;12.18;7.28;;;4.70;63.00;;;;;;5008578;28;20525;-32
2022/03/09 09:40:36;;;;;;;12.57;6.88;;;4.80;62.60;;;;;;5006207;28;20160;-32
2022/03/09 09:43:07;;;;;;;14.30;7.00;;;4.90;62.40;;;;;;5006872;28;20037;-32
2022/03/09 09:45:34;;;;;;;12.93;7.43;;;5.00;63.00;;;;;;5008311;28;20030;-32
2022/03/09 09:48:01;;;;;;;12.75;7.28;;;5.20;62.10;;;;;;5001779;28;20041;-32
2022/03/09 09:50:27;;;;;;;11.52;6.97;;;5.40;63.00;;;;;;5001197;28;20395;-32
2022/03/09 09:52:53;;;;;;;12.48;7.18;;;5.50;61.70;;;;;;5000239;28;21948;-32
2022/03/09 09:55:19;;;;;;;13.07;6.35;;;5.70;61.10;;;;;;5004887;28;20108;-32
2022/03/09 09:57:47;;;;;;;10.32;6.40;;;5.80;57.00;;;;;;5006458;28;20033;-32
2022/03/09 10:00:13;;;;;;;;;;;6.00;56.70;;;;;;5009233;28;20620;-32
2022/03/09 10:02:42;;;;;;;14.23;6.57;;;5.80;53.30;;;;;;5008160;28;19921;-32
2022/03/09 10:05:12;;;;;;;12.15;7.15;;;5.70;54.20;;;;;;5004593;28;20398;-32
2022/03/09 10:08:02;;;;;;;13.50;7.95;;;5.90;54.80;;;;;;5007636;28;20392;-32
2022/03/09 10:10:29;;;;;;;15.48;8.05;;;6.00;53.70;;;;;;5009035;28;20108;-32
2022/03/09 10:13:09;;;;;;;12.00;6.30;;;6.10;54.90;;;;;;5006329;28;20049;-32
2022/03/09 10:15:35;;;;;;;13.93;7.40;;;6.20;52.50;;;;;;5004472;28;20026;-32
2022/03/09 10:18:21;;;;;;;11.88;7.45;;;6.30;53.70;;;;;;5007150;28;20184;-32
2022/03/09 10:20:49;;;;;;;14.35;8.15;;;6.50;50.60;;;;;;4999947;28;20025;-32
2022/03/09 10:23:20;;;;;;;11.45;7.50;;;6.40;53.20;;;;;;5000457;28;20055;-32
2022/03/09 10:25:47;;;;;;;16.75;7.65;;;6.60;50.90;;;;;;5008367;28;20056;-32
2022/03/09 10:28:13;;;;;;;15.13;7.40;;;6.70;52.00;;;;;;5008179;28;20025;-32
2022/03/09 10:30:41;;;;;;;13.63;7.57;;;6.90;52.10;;;;;;5003190;28;20029;-32
2022/03/09 10:33:12;;;;;;;11.15;7.80;;;7.10;49.00;;;;;;5006524;28;20034;-32
2022/03/09 10:35:44;;;;;;;14.95;8.32;;;7.30;51.20;;;;;;5003348;28;20219;-33
2022/03/09 10:38:15;;;;;;;14.27;6.65;;;7.00;47.10;;;;;;5009535;28;20024;-32
2022/03/09 10:40:45;;;;;;;13.82;7.32;;;7.10;49.30;;;;;;5002960;28;20084;-32
2022/03/09 10:43:22;;;;;;;15.90;7.65;;;7.20;49.80;;;;;;5003489;28;20033;-33
2022/03/09 10:46:00;;;;;;;13.32;7.60;;;7.40;48.10;;;;;;5008464;28;20248;-32
2022/03/09 10:48:26;;;;;;;13.87;7.77;;;7.30;47.10;;;;;;5003190;28;20033;-32
2022/03/09 10:50:53;;;;;;;15.43;6.75;;;7.30;48.40;;;;;;5009001;28;20076;-32
2022/03/09 10:53:19;;;;;;;11.90;6.70;;;7.50;47.60;;;;;;5003538;28;20112;-32
2022/03/09 10:55:44;;;;;;;11.43;8.35;;;7.60;48.50;;;;;;5008025;28;20076;-33
2022/03/09 10:58:21;;;;;;;12.63;6.88;;;7.70;48.40;;;;;;5006286;28;20028;-32
2022/03/09 11:00:48;;;;;;;10.70;6.38;;;8.00;47.50;;;;;;5007586;28;20042;-32
2022/03/09 11:03:27;;;;;;;13.80;7.68;;;8.20;46.40;;;;;;5005196;28;20040;-32
2022/03/09 11:05:57;;;;;;;16.98;8.23;;;8.20;46.80;;;;;;5005488;28;20080;-32
2022/03/09 11:08:35;;;;;;;13.15;7.65;;;8.20;45.50;;;;;;5006193;28;20030;-32
2022/03/09 11:11:02;;;;;;;14.85;7.55;;;8.10;46.40;;;;;;5007890;28;20483;-33
2022/03/09 11:13:29;;;;;;;11.52;7.65;;;8.10;44.30;;;;;;5001867;28;20025;-32
2022/03/09 11:15:55;;;;;;;14.70;7.85;;;8.10;47.50;;;;;;5007586;28;20046;-32
2022/03/09 11:18:24;;;;;;;13.98;8.35;;;8.20;46.20;;;;;;5001852;28;20034;-32
2022/03/09 11:20:58;;;;;;;18.58;7.63;;;8.30;44.50;;;;;;5008667;28;20026;-32
2022/03/09 11:23:25;;;;;;;18.73;8.60;;;8.20;44.50;;;;;;5003254;28;20038;-32
2022/03/09 11:26:14;;;;;;;14.80;7.97;;;8.10;43.80;;;;;;5001066;28;20026;-32
2022/03/09 11:28:43;;;;;;;13.25;7.47;;;8.30;44.60;;;;;;5005656;28;20395;-33
2022/03/09 11:31:12;;;;;;;;;;;8.40;44.60;;;;;;5008382;28;20042;-32
2022/03/09 11:33:46;;;;;;;11.30;7.00;;;8.40;44.60;;;;;;5001162;28;19916;-32
2022/03/09 11:36:23;;;;;;;13.15;7.55;;;8.50;43.60;;;;;;5004681;28;20029;-32
2022/03/09 11:38:52;;;;;;;13.60;7.77;;;8.30;41.80;;;;;;5005916;28;20037;-33
2022/03/09 11:41:23;;;;;;;16.30;7.75;;;8.40;40.80;;;;;;5007891;28;20542;-32
2022/03/09 11:43:51;;;;;;;16.35;8.55;;;8.30;41.50;;;;;;4997270;28;20133;-32
2022/03/09 11:46:17;;;;;;;19.80;8.35;;;8.30;42.80;;;;;;5005369;28;20056;-32
2022/03/09 11:48:54;;;;;;;15.05;8.75;;;8.50;41.90;;;;;;5006095;28;20030;-32
2022/03/09 11:51:22;;;;;;;14.53;7.67;;;8.60;42.40;;;;;;5003217;28;20026;-32
2022/03/09 11:53:54;;;;;;;17.35;8.07;;;8.60;41.70;;;;;;5004152;28;20289;-32
2022/03/09 11:56:27;;;;;;;12.77;7.30;;;8.60;40.50;;;;;;5008242;28;20034;-32
2022/03/09 11:59:18;;;;;;;13.30;7.72;;;8.70;40.40;;;;;;5000302;28;20030;-32
2022/03/09 12:01:59;;;;;;;28.80;8.68;;;8.50;39.10;;;;;;5003683;28;20030;-32
2022/03/09 12:04:41;;;;;;;15.45;7.78;;;8.50;40.00;;;;;;5004362;28;20449;-32
2022/03/09 12:07:28;;;;;;;12.30;7.32;;;8.60;40.00;;;;;;5007585;28;20509;-32
2022/03/09 12:09:58;;;;;;;13.82;8.05;;;8.70;39.40;;;;;;4984408;28;20046;-32
2022/03/09 12:12:26;;;;;;;22.13;7.95;;;8.60;40.20;;;;;;4998426;28;20034;-32
2022/03/09 12:15:09;;;;;;;15.35;8.20;;;8.70;42.10;;;;;;4996743;28;20026;-33
2022/03/09 12:17:37;;;;;;;14.73;8.05;;;8.80;41.70;;;;;;5000204;28;20092;-32
2022/03/09 12:20:29;;;;;;;16.05;8.05;;;8.70;40.00;;;;;;5007380;28;20026;-32
2022/03/09 12:22:55;;;;;;;17.30;9.02;;;8.70;41.70;;;;;;5002796;28;20030;-32
2022/03/09 12:25:49;;;;;;;14.65;8.30;;;8.80;40.10;;;;;;5007241;28;20399;-33
2022/03/09 12:28:23;;;;;;;13.82;7.70;;;8.80;40.00;;;;;;5004705;28;20432;-32
2022/03/09 12:31:07;;;;;;;17.73;8.10;;;9.00;39.90;;;;;;5007219;28;20092;-33
2022/03/09 12:33:37;;;;;;;14.80;7.82;;;9.10;38.70;;;;;;4988434;28;20034;-32
2022/03/09 12:36:09;;;;;;;16.55;7.40;;;9.00;35.60;;;;;;4996985;28;20032;-33
2022/03/09 12:38:59;;;;;;;12.73;7.57;;;8.70;37.60;;;;;;5007537;28;20100;-32
2022/03/09 12:41:32;;;;;;;16.63;8.80;;;8.80;38.50;;;;;;5002357;28;20038;-32
2022/03/09 12:44:02;;;;;;;13.63;8.30;;;8.90;39.90;;;;;;4984593;28;20133;-32
2022/03/09 12:46:29;;;;;;;15.52;8.55;;;9.00;39.80;;;;;;5003844;28;20484;-32
2022/03/09 12:49:02;;;;;;;14.60;7.70;;;9.10;37.60;;;;;;5004091;28;20018;-32